sensor_id;sensor_type;location;lat;lon;timestamp;pressure;altitude;pressure_sealevel;temperature;humidity
53506;BME280;39388;50.936;6.848;2023-01-29T00:00:42;102450.34;;;-0.67;75.73
53506;BME280;39388;50.936;6.848;2023-01-29T00:03:14;102458.84;;;-0.67;75.71
53506;BME280;39388;50.936;6.848;2023-01-29T00:05:45;102440.47;;;-0.76;75.93
53506;BME280;39388;50.936;6.848;2023-01-29T00:08:15;102427.38;;;-0.82;75.91
53506;BME280;39388;50.936;6.848;2023-01-29T00:10:45;102439.59;;;-0.77;75.76
53506;BME280;39388;50.936;6.848;2023-01-29T00:13:16;102439.91;;;-0.72;76.21
53506;BME280;39388;50.936;6.848;2023-01-29T00:15:54;102453.47;;;-0.71;75.98
53506;BME280;39388;50.936;6.848;2023-01-29T00:18:26;102437.59;;;-0.81;76.27
53506;BME280;39388;50.936;6.848;2023-01-29T00:20:56;102439.38;;;-0.80;76.20
53506;BME280;39388;50.936;6.848;2023-01-29T00:23:27;102440.13;;;-0.81;76.38
53506;BME280;39388;50.936;6.848;2023-01-29T00:25:59;102439.72;;;-0.75;75.92
53506;BME280;39388;50.936;6.848;2023-01-29T00:28:29;102424.63;;;-0.85;76.41
53506;BME280;39388;50.936;6.848;2023-01-29T00:31:11;102426.59;;;-0.81;76.30
53506;BME280;39388;50.936;6.848;2023-01-29T00:33:41;102432.22;;;-0.85;76.16
53506;BME280;39388;50.936;6.848;2023-01-29T00:36:13;102435.66;;;-0.85;76.10
53506;BME280;39388;50.936;6.848;2023-01-29T00:38:44;102428.06;;;-0.85;76.55
53506;BME280;39388;50.936;6.848;2023-01-29T00:41:31;102421.44;;;-0.83;76.57
53506;BME280;39388;50.936;6.848;2023-01-29T00:44:20;102406.50;;;-0.92;76.72
53506;BME280;39388;50.936;6.848;2023-01-29T00:47:09;102419.69;;;-0.84;76.43
53506;BME280;39388;50.936;6.848;2023-01-29T00:50:03;102416.47;;;-0.81;76.44
53506;BME280;39388;50.936;6.848;2023-01-29T00:52:34;102399.00;;;-0.90;76.66
53506;BME280;39388;50.936;6.848;2023-01-29T00:55:07;102396.91;;;-0.96;76.65
53506;BME280;39388;50.936;6.848;2023-01-29T00:57:37;102418.16;;;-0.82;76.62
53506;BME280;39388;50.936;6.848;2023-01-29T01:00:11;102408.34;;;-0.89;76.46
53506;BME280;39388;50.936;6.848;2023-01-29T01:02:42;102413.63;;;-0.86;76.49
53506;BME280;39388;50.936;6.848;2023-01-29T01:05:31;102406.50;;;-0.92;76.69
53506;BME280;39388;50.936;6.848;2023-01-29T01:08:02;102408.13;;;-0.92;76.78
53506;BME280;39388;50.936;6.848;2023-01-29T01:10:32;102393.75;;;-1.05;76.97
53506;BME280;39388;50.936;6.848;2023-01-29T01:13:04;102423.22;;;-0.94;76.72
53506;BME280;39388;50.936;6.848;2023-01-29T01:15:38;102409.34;;;-0.99;77.13
53506;BME280;39388;50.936;6.848;2023-01-29T01:20:41;102385.72;;;-1.11;77.04
53506;BME280;39388;50.936;6.848;2023-01-29T01:23:12;102358.25;;;-1.30;76.94
53506;BME280;39388;50.936;6.848;2023-01-29T01:25:43;102392.19;;;-1.03;77.01
53506;BME280;39388;50.936;6.848;2023-01-29T01:28:13;102398.25;;;-1.01;76.66
53506;BME280;39388;50.936;6.848;2023-01-29T01:30:43;102374.19;;;-1.19;77.27
53506;BME280;39388;50.936;6.848;2023-01-29T01:33:14;102388.03;;;-1.14;76.85
53506;BME280;39388;50.936;6.848;2023-01-29T01:35:44;102406.66;;;-1.14;76.95
53506;BME280;39388;50.936;6.848;2023-01-29T01:38:15;102413.78;;;-1.08;77.02
53506;BME280;39388;50.936;6.848;2023-01-29T01:40:45;102415.44;;;-1.09;77.28
53506;BME280;39388;50.936;6.848;2023-01-29T01:43:16;102414.25;;;-1.14;77.00
53506;BME280;39388;50.936;6.848;2023-01-29T01:45:46;102427.53;;;-1.04;76.76
53506;BME280;39388;50.936;6.848;2023-01-29T01:48:21;102424.91;;;-1.06;76.97
53506;BME280;39388;50.936;6.848;2023-01-29T01:51:00;102394.00;;;-1.26;76.89
53506;BME280;39388;50.936;6.848;2023-01-29T01:54:05;102417.75;;;-1.12;77.50
53506;BME280;39388;50.936;6.848;2023-01-29T01:56:41;102402.03;;;-1.19;77.32
53506;BME280;39388;50.936;6.848;2023-01-29T01:59:16;102392.09;;;-1.16;77.08
53506;BME280;39388;50.936;6.848;2023-01-29T02:01:49;102382.13;;;-1.27;77.30
53506;BME280;39388;50.936;6.848;2023-01-29T02:04:24;102384.56;;;-1.28;77.42
53506;BME280;39388;50.936;6.848;2023-01-29T02:07:14;102379.34;;;-1.30;77.21
53506;BME280;39388;50.936;6.848;2023-01-29T02:10:13;102387.72;;;-1.19;77.13
53506;BME280;39388;50.936;6.848;2023-01-29T02:12:45;102385.53;;;-1.26;77.42
53506;BME280;39388;50.936;6.848;2023-01-29T02:15:15;102382.66;;;-1.31;77.39
53506;BME280;39388;50.936;6.848;2023-01-29T02:17:46;102391.38;;;-1.27;77.15
53506;BME280;39388;50.936;6.848;2023-01-29T02:20:28;102388.94;;;-1.26;77.26
53506;BME280;39388;50.936;6.848;2023-01-29T02:28:46;102411.16;;;-1.22;77.20
53506;BME280;39388;50.936;6.848;2023-01-29T02:31:33;102401.28;;;-1.30;77.72
53506;BME280;39388;50.936;6.848;2023-01-29T02:34:19;102387.31;;;-1.37;77.56
53506;BME280;39388;50.936;6.848;2023-01-29T02:37:03;102410.84;;;-1.26;77.39
53506;BME280;39388;50.936;6.848;2023-01-29T02:39:56;102403.72;;;-1.32;77.49
53506;BME280;39388;50.936;6.848;2023-01-29T02:42:39;102418.44;;;-1.26;77.61
53506;BME280;39388;50.936;6.848;2023-01-29T02:48:04;102407.56;;;-1.37;77.88
53506;BME280;39388;50.936;6.848;2023-01-29T02:53:31;102419.31;;;-1.38;77.73
53506;BME280;39388;50.936;6.848;2023-01-29T02:56:12;102423.50;;;-1.38;77.34
53506;BME280;39388;50.936;6.848;2023-01-29T02:58:52;102411.06;;;-1.47;77.65
53506;BME280;39388;50.936;6.848;2023-01-29T03:01:33;102424.03;;;-1.42;77.69
53506;BME280;39388;50.936;6.848;2023-01-29T03:04:13;102436.16;;;-1.38;77.59
53506;BME280;39388;50.936;6.848;2023-01-29T03:06:59;102438.59;;;-1.40;77.85
53506;BME280;39388;50.936;6.848;2023-01-29T03:09:35;102464.22;;;-1.35;77.87
53506;BME280;39388;50.936;6.848;2023-01-29T03:12:14;102458.47;;;-1.44;77.59
53506;BME280;39388;50.936;6.848;2023-01-29T03:14:59;102462.00;;;-1.42;77.83
53506;BME280;39388;50.936;6.848;2023-01-29T03:18:06;102453.97;;;-1.48;77.80
53506;BME280;39388;50.936;6.848;2023-01-29T03:20:41;102448.16;;;-1.47;77.77
53506;BME280;39388;50.936;6.848;2023-01-29T03:23:22;102421.31;;;-1.57;77.74
53506;BME280;39388;50.936;6.848;2023-01-29T03:25:58;102420.41;;;-1.58;77.93
53506;BME280;39388;50.936;6.848;2023-01-29T03:28:47;102417.88;;;-1.58;77.98
53506;BME280;39388;50.936;6.848;2023-01-29T03:31:36;102422.06;;;-1.58;78.02
53506;BME280;39388;50.936;6.848;2023-01-29T03:34:26;102403.91;;;-1.64;77.86
53506;BME280;39388;50.936;6.848;2023-01-29T03:37:07;102413.28;;;-1.52;78.08
53506;BME280;39388;50.936;6.848;2023-01-29T03:39:40;102394.13;;;-1.60;78.11
53506;BME280;39388;50.936;6.848;2023-01-29T03:55:41;102408.34;;;-1.62;78.54
53506;BME280;39388;50.936;6.848;2023-01-29T03:58:35;102383.34;;;-1.81;78.28
53506;BME280;39388;50.936;6.848;2023-01-29T04:01:16;102424.94;;;-1.54;78.39
53506;BME280;39388;50.936;6.848;2023-01-29T04:06:56;102432.63;;;-1.52;78.18
53506;BME280;39388;50.936;6.848;2023-01-29T04:09:37;102393.47;;;-1.69;78.61
53506;BME280;39388;50.936;6.848;2023-01-29T04:12:11;102424.84;;;-1.55;78.21
53506;BME280;39388;50.936;6.848;2023-01-29T04:14:43;102412.41;;;-1.64;78.15
53506;BME280;39388;50.936;6.848;2023-01-29T04:17:18;102422.84;;;-1.59;78.08
53506;BME280;39388;50.936;6.848;2023-01-29T04:19:52;102418.66;;;-1.59;78.31
53506;BME280;39388;50.936;6.848;2023-01-29T04:22:33;102382.38;;;-1.83;78.22
53506;BME280;39388;50.936;6.848;2023-01-29T04:25:06;102408.34;;;-1.62;78.11
53506;BME280;39388;50.936;6.848;2023-01-29T04:38:57;102378.84;;;-1.61;78.48
53506;BME280;39388;50.936;6.848;2023-01-29T04:41:54;102381.47;;;-1.60;78.19
53506;BME280;39388;50.936;6.848;2023-01-29T04:44:41;102381.47;;;-1.60;78.57
53506;BME280;39388;50.936;6.848;2023-01-29T04:47:22;102382.38;;;-1.59;78.48
53506;BME280;39388;50.936;6.848;2023-01-29T04:50:39;102380.50;;;-1.62;78.57
53506;BME280;39388;50.936;6.848;2023-01-29T04:53:18;102379.63;;;-1.62;78.33
53506;BME280;39388;50.936;6.848;2023-01-29T04:56:16;102361.69;;;-1.77;78.36
53506;BME280;39388;50.936;6.848;2023-01-29T04:58:57;102385.44;;;-1.63;78.44
53506;BME280;39388;50.936;6.848;2023-01-29T05:01:29;102386.19;;;-1.64;78.52
53506;BME280;39388;50.936;6.848;2023-01-29T05:04:06;102370.03;;;-1.67;78.46
53506;BME280;39388;50.936;6.848;2023-01-29T05:06:38;102362.34;;;-1.68;78.21
53506;BME280;39388;50.936;6.848;2023-01-29T05:09:11;102347.63;;;-1.74;78.35
53506;BME280;39388;50.936;6.848;2023-01-29T05:11:45;102328.69;;;-1.79;78.32
53506;BME280;39388;50.936;6.848;2023-01-29T05:14:18;102337.28;;;-1.77;78.22
53506;BME280;39388;50.936;6.848;2023-01-29T05:16:51;102341.66;;;-1.74;78.47
53506;BME280;39388;50.936;6.848;2023-01-29T05:19:22;102354.66;;;-1.70;78.96
53506;BME280;39388;50.936;6.848;2023-01-29T05:21:53;102349.25;;;-1.74;78.44
53506;BME280;39388;50.936;6.848;2023-01-29T05:24:25;102367.84;;;-1.74;78.70
53506;BME280;39388;50.936;6.848;2023-01-29T05:26:55;102376.53;;;-1.70;78.81
53506;BME280;39388;50.936;6.848;2023-01-29T05:29:45;102354.13;;;-1.77;78.70
53506;BME280;39388;50.936;6.848;2023-01-29T05:32:16;102344.63;;;-1.80;78.46
53506;BME280;39388;50.936;6.848;2023-01-29T05:34:46;102345.09;;;-1.74;78.67
53506;BME280;39388;50.936;6.848;2023-01-29T05:37:17;102342.78;;;-1.71;78.72
53506;BME280;39388;50.936;6.848;2023-01-29T05:39:47;102337.41;;;-1.75;78.89
53506;BME280;39388;50.936;6.848;2023-01-29T05:42:17;102337.19;;;-1.78;78.70
53506;BME280;39388;50.936;6.848;2023-01-29T05:44:48;102346.94;;;-1.71;78.77
53506;BME280;39388;50.936;6.848;2023-01-29T05:47:19;102347.84;;;-1.71;78.87
53506;BME280;39388;50.936;6.848;2023-01-29T05:49:49;102325.31;;;-1.79;78.12
53506;BME280;39388;50.936;6.848;2023-01-29T05:52:20;102331.69;;;-1.73;78.31
53506;BME280;39388;50.936;6.848;2023-01-29T05:54:50;102336.19;;;-1.69;78.24
53506;BME280;39388;50.936;6.848;2023-01-29T05:57:20;102329.69;;;-1.77;78.47
53506;BME280;39388;50.936;6.848;2023-01-29T05:59:51;102339.59;;;-1.68;78.61
53506;BME280;39388;50.936;6.848;2023-01-29T06:02:21;102333.75;;;-1.67;78.27
53506;BME280;39388;50.936;6.848;2023-01-29T06:04:52;102359.81;;;-1.56;78.48
53506;BME280;39388;50.936;6.848;2023-01-29T06:07:22;102343.13;;;-1.66;78.69
53506;BME280;39388;50.936;6.848;2023-01-29T06:09:52;102338.50;;;-1.72;78.65
53506;BME280;39388;50.936;6.848;2023-01-29T06:12:23;102362.13;;;-1.59;78.35
53506;BME280;39388;50.936;6.848;2023-01-29T06:14:53;102354.09;;;-1.65;78.41
53506;BME280;39388;50.936;6.848;2023-01-29T06:17:23;102341.03;;;-1.72;78.30
53506;BME280;39388;50.936;6.848;2023-01-29T06:19:54;102361.50;;;-1.69;79.10
53506;BME280;39388;50.936;6.848;2023-01-29T06:22:24;102349.06;;;-1.77;78.54
53506;BME280;39388;50.936;6.848;2023-01-29T06:24:55;102356.19;;;-1.72;78.57
53506;BME280;39388;50.936;6.848;2023-01-29T06:27:25;102361.03;;;-1.75;78.60
53506;BME280;39388;50.936;6.848;2023-01-29T06:29:55;102317.06;;;-2.01;78.89
53506;BME280;39388;50.936;6.848;2023-01-29T06:32:26;102359.38;;;-1.74;78.61
53506;BME280;39388;50.936;6.848;2023-01-29T06:34:56;102368.63;;;-1.75;78.44
53506;BME280;39388;50.936;6.848;2023-01-29T06:37:27;102376.09;;;-1.76;78.62
53506;BME280;39388;50.936;6.848;2023-01-29T06:39:57;102370.50;;;-1.84;78.89
53506;BME280;39388;50.936;6.848;2023-01-29T06:42:28;102389.53;;;-1.77;78.73
53506;BME280;39388;50.936;6.848;2023-01-29T06:44:58;102370.56;;;-1.94;78.71
53506;BME280;39388;50.936;6.848;2023-01-29T06:47:59;102400.41;;;-1.78;78.97
53506;BME280;39388;50.936;6.848;2023-01-29T06:50:39;102413.81;;;-1.79;78.90
53506;BME280;39388;50.936;6.848;2023-01-29T06:53:10;102421.25;;;-1.81;79.19
53506;BME280;39388;50.936;6.848;2023-01-29T06:55:41;102422.25;;;-1.79;78.95
53506;BME280;39388;50.936;6.848;2023-01-29T06:58:11;102414.81;;;-1.77;79.15
53506;BME280;39388;50.936;6.848;2023-01-29T07:00:42;102419.09;;;-1.76;79.06
53506;BME280;39388;50.936;6.848;2023-01-29T07:03:12;102418.53;;;-1.72;79.11
53506;BME280;39388;50.936;6.848;2023-01-29T07:05:49;102410.63;;;-1.65;79.11
53506;BME280;39388;50.936;6.848;2023-01-29T07:08:20;102408.34;;;-1.62;79.03
53506;BME280;39388;50.936;6.848;2023-01-29T07:10:51;102396.78;;;-1.58;78.88
53506;BME280;39388;50.936;6.848;2023-01-29T07:13:22;102399.53;;;-1.55;78.60
53506;BME280;39388;50.936;6.848;2023-01-29T07:15:52;102406.44;;;-1.53;78.55
53506;BME280;39388;50.936;6.848;2023-01-29T07:18:23;102396.66;;;-1.60;78.37
53506;BME280;39388;50.936;6.848;2023-01-29T07:20:53;102401.72;;;-1.48;78.42
53506;BME280;39388;50.936;6.848;2023-01-29T07:23:24;102359.16;;;-1.65;78.28
53506;BME280;39388;50.936;6.848;2023-01-29T07:25:54;102388.84;;;-1.51;78.58
53506;BME280;39388;50.936;6.848;2023-01-29T07:28:24;102359.28;;;-1.64;78.43
53506;BME280;39388;50.936;6.848;2023-01-29T07:30:58;102397.75;;;-1.32;78.16
53506;BME280;39388;50.936;6.848;2023-01-29T07:33:29;102389.94;;;-1.36;78.27
53506;BME280;39388;50.936;6.848;2023-01-29T07:36:00;102391.78;;;-1.21;78.12
53506;BME280;39388;50.936;6.848;2023-01-29T07:38:30;102364.09;;;-1.31;78.20
53506;BME280;39388;50.936;6.848;2023-01-29T07:41:01;102351.44;;;-1.31;77.75
53506;BME280;39388;50.936;6.848;2023-01-29T07:43:32;102355.03;;;-1.16;77.78
53506;BME280;39388;50.936;6.848;2023-01-29T07:46:04;102369.75;;;-0.98;77.80
53506;BME280;39388;50.936;6.848;2023-01-29T07:48:35;102341.06;;;-1.11;77.40
53506;BME280;39388;50.936;6.848;2023-01-29T07:51:05;102332.34;;;-1.14;77.18
53506;BME280;39388;50.936;6.848;2023-01-29T07:53:36;102369.69;;;-0.86;77.14
53506;BME280;39388;50.936;6.848;2023-01-29T07:56:06;102322.97;;;-1.03;77.42
53506;BME280;39388;50.936;6.848;2023-01-29T07:58:37;102352.78;;;-0.74;77.16
53506;BME280;39388;50.936;6.848;2023-01-29T08:01:07;102371.47;;;-0.60;77.63
53506;BME280;39388;50.936;6.848;2023-01-29T08:03:38;102363.19;;;-0.57;77.69
53506;BME280;39388;50.936;6.848;2023-01-29T08:06:08;102363.50;;;-0.53;76.88
53506;BME280;39388;50.936;6.848;2023-01-29T08:08:39;102324.38;;;-0.70;77.17
53506;BME280;39388;50.936;6.848;2023-01-29T08:11:09;102310.19;;;-0.80;76.96
53506;BME280;39388;50.936;6.848;2023-01-29T08:13:40;102329.66;;;-0.67;77.52
53506;BME280;39388;50.936;6.848;2023-01-29T08:16:10;102340.06;;;-0.62;77.37
53506;BME280;39388;50.936;6.848;2023-01-29T08:18:40;102347.50;;;-0.52;77.31
53506;BME280;39388;50.936;6.848;2023-01-29T08:21:16;102309.47;;;-0.65;76.74
53506;BME280;39388;50.936;6.848;2023-01-29T08:23:47;102334.41;;;-0.46;77.03
53506;BME280;39388;50.936;6.848;2023-01-29T08:26:17;102300.88;;;-0.67;77.09
53506;BME280;39388;50.936;6.848;2023-01-29T08:28:48;102369.72;;;-0.22;76.75
53506;BME280;39388;50.936;6.848;2023-01-29T08:31:18;102355.88;;;-0.27;76.94
53506;BME280;39388;50.936;6.848;2023-01-29T08:33:54;102321.03;;;-0.43;77.04
53506;BME280;39388;50.936;6.848;2023-01-29T08:36:25;102335.47;;;-0.42;76.56
53506;BME280;39388;50.936;6.848;2023-01-29T08:38:55;102337.72;;;-0.47;76.76
53506;BME280;39388;50.936;6.848;2023-01-29T08:41:26;102345.91;;;-0.38;76.68
53506;BME280;39388;50.936;6.848;2023-01-29T08:43:56;102337.63;;;-0.35;77.21
53506;BME280;39388;50.936;6.848;2023-01-29T08:46:27;102359.38;;;-0.25;77.04
53506;BME280;39388;50.936;6.848;2023-01-29T08:48:57;102389.47;;;-0.05;76.74
53506;BME280;39388;50.936;6.848;2023-01-29T08:51:28;102305.72;;;-0.45;76.66
53506;BME280;39388;50.936;6.848;2023-01-29T08:53:58;102349.19;;;-0.14;76.49
53506;BME280;39388;50.936;6.848;2023-01-29T08:56:29;102309.09;;;-0.33;76.52
53506;BME280;39388;50.936;6.848;2023-01-29T08:58:59;102329.25;;;-0.21;76.65
53506;BME280;39388;50.936;6.848;2023-01-29T09:01:30;102356.69;;;-0.02;76.47
53506;BME280;39388;50.936;6.848;2023-01-29T09:04:07;102308.97;;;-0.21;76.40
53506;BME280;39388;50.936;6.848;2023-01-29T09:06:37;102310.84;;;-0.18;76.32
53506;BME280;39388;50.936;6.848;2023-01-29T09:09:08;102278.34;;;-0.37;76.19
53506;BME280;39388;50.936;6.848;2023-01-29T09:11:38;102277.00;;;-0.32;76.27
53506;BME280;39388;50.936;6.848;2023-01-29T09:14:09;102268.53;;;-0.33;76.18
53506;BME280;39388;50.936;6.848;2023-01-29T09:16:42;102320.41;;;-0.01;76.34
53506;BME280;39388;50.936;6.848;2023-01-29T09:19:12;102257.78;;;-0.29;75.80
53506;BME280;39388;50.936;6.848;2023-01-29T09:21:42;102308.91;;;0.05;76.03
53506;BME280;39388;50.936;6.848;2023-01-29T09:24:21;102367.44;;;0.48;76.21
53506;BME280;39388;50.936;6.848;2023-01-29T09:26:51;102369.69;;;0.57;76.71
53506;BME280;39388;50.936;6.848;2023-01-29T09:29:21;102341.38;;;0.51;76.01
53506;BME280;39388;50.936;6.848;2023-01-29T09:31:52;102347.91;;;0.60;75.96
53506;BME280;39388;50.936;6.848;2023-01-29T09:34:22;102335.91;;;0.58;75.98
53506;BME280;39388;50.936;6.848;2023-01-29T09:36:52;102322.31;;;0.57;76.08
53506;BME280;39388;50.936;6.848;2023-01-29T09:39:23;102340.00;;;0.69;75.89
53506;BME280;39388;50.936;6.848;2023-01-29T09:44:51;102350.97;;;0.83;76.28
53506;BME280;39388;50.936;6.848;2023-01-29T09:47:26;102338.97;;;0.81;76.29
53506;BME280;39388;50.936;6.848;2023-01-29T09:52:40;102334.84;;;0.96;75.39
53506;BME280;39388;50.936;6.848;2023-01-29T09:55:21;102325.84;;;1.01;75.92
53506;BME280;39388;50.936;6.848;2023-01-29T10:06:23;102322.66;;;1.34;75.41
53506;BME280;39388;50.936;6.848;2023-01-29T10:25:43;102288.59;;;1.75;74.44
53506;BME280;39388;50.936;6.848;2023-01-29T10:28:33;102294.19;;;1.84;74.40
53506;BME280;39388;50.936;6.848;2023-01-29T10:31:37;102294.78;;;1.95;73.71
53506;BME280;39388;50.936;6.848;2023-01-29T10:34:27;102295.69;;;1.96;73.89
53506;BME280;39388;50.936;6.848;2023-01-29T10:37:00;102301.63;;;1.96;73.60
53506;BME280;39388;50.936;6.848;2023-01-29T10:39:35;102298.47;;;2.00;73.33
53506;BME280;39388;50.936;6.848;2023-01-29T10:42:25;102299.59;;;2.06;73.27
53506;BME280;39388;50.936;6.848;2023-01-29T10:50:54;102289.03;;;2.29;73.14
53506;BME280;39388;50.936;6.848;2023-01-29T10:53:43;102299.78;;;2.40;73.14
53506;BME280;39388;50.936;6.848;2023-01-29T10:58:54;102279.34;;;2.39;72.77
53506;BME280;39388;50.936;6.848;2023-01-29T11:01:26;102272.31;;;2.35;72.76
53506;BME280;39388;50.936;6.848;2023-01-29T11:04:02;102264.13;;;2.24;73.40
53506;BME280;39388;50.936;6.848;2023-01-29T11:06:34;102265.88;;;2.25;73.51
53506;BME280;39388;50.936;6.848;2023-01-29T11:11:53;102267.16;;;2.33;72.79
53506;BME280;39388;50.936;6.848;2023-01-29T11:14:36;102256.19;;;2.34;72.64
53506;BME280;39388;50.936;6.848;2023-01-29T11:17:16;102248.78;;;2.39;72.37
53506;BME280;39388;50.936;6.848;2023-01-29T11:19:48;102244.72;;;2.42;72.47
53506;BME280;39388;50.936;6.848;2023-01-29T11:22:26;102242.44;;;2.47;72.54
53506;BME280;39388;50.936;6.848;2023-01-29T11:25:19;102237.72;;;2.55;72.38
53506;BME280;39388;50.936;6.848;2023-01-29T11:27:57;102224.47;;;2.60;71.92
53506;BME280;39388;50.936;6.848;2023-01-29T11:30:33;102210.94;;;2.61;72.08
53506;BME280;39388;50.936;6.848;2023-01-29T11:35:41;102214.19;;;2.75;71.97
53506;BME280;39388;50.936;6.848;2023-01-29T11:40:45;102210.13;;;2.79;71.28
53506;BME280;39388;50.936;6.848;2023-01-29T11:43:29;102209.66;;;2.86;71.45
53506;BME280;39388;50.936;6.848;2023-01-29T11:46:02;102194.59;;;2.91;71.18
53506;BME280;39388;50.936;6.848;2023-01-29T11:48:46;102189.88;;;2.99;71.06
53506;BME280;39388;50.936;6.848;2023-01-29T11:51:22;102195.38;;;3.06;71.03
53506;BME280;39388;50.936;6.848;2023-01-29T11:54:05;102192.66;;;3.03;71.15
53506;BME280;39388;50.936;6.848;2023-01-29T11:56:43;102185.06;;;3.05;71.14
53506;BME280;39388;50.936;6.848;2023-01-29T11:59:41;102183.00;;;3.14;70.88
53506;BME280;39388;50.936;6.848;2023-01-29T12:04:55;102160.59;;;3.25;70.62
53506;BME280;39388;50.936;6.848;2023-01-29T12:07:27;102154.97;;;3.32;70.55
53506;BME280;39388;50.936;6.848;2023-01-29T12:09:59;102151.84;;;3.38;70.69
53506;BME280;39388;50.936;6.848;2023-01-29T12:12:35;102152.22;;;3.46;70.03
53506;BME280;39388;50.936;6.848;2023-01-29T12:17:37;102144.19;;;3.56;70.07
53506;BME280;39388;50.936;6.848;2023-01-29T12:20:23;102148.56;;;3.59;70.19
53506;BME280;39388;50.936;6.848;2023-01-29T12:26:05;102133.53;;;3.65;70.05
53506;BME280;39388;50.936;6.848;2023-01-29T12:31:28;102116.34;;;3.79;69.72
53506;BME280;39388;50.936;6.848;2023-01-29T12:37:37;102096.41;;;3.90;70.18
53506;BME280;39388;50.936;6.848;2023-01-29T12:40:14;102093.78;;;3.88;70.30
53506;BME280;39388;50.936;6.848;2023-01-29T12:42:48;102076.84;;;3.90;69.92
53506;BME280;39388;50.936;6.848;2023-01-29T12:45:22;102060.47;;;3.85;69.49
53506;BME280;39388;50.936;6.848;2023-01-29T12:47:58;102067.75;;;3.95;69.74
53506;BME280;39388;50.936;6.848;2023-01-29T12:50:35;102057.59;;;3.97;69.91
53506;BME280;39388;50.936;6.848;2023-01-29T12:55:56;102041.47;;;3.98;69.52
53506;BME280;39388;50.936;6.848;2023-01-29T12:58:36;102037.38;;;4.02;69.51
53506;BME280;39388;50.936;6.848;2023-01-29T13:01:15;102042.56;;;4.03;69.60
53506;BME280;39388;50.936;6.848;2023-01-29T13:03:53;102039.25;;;4.06;69.66
53506;BME280;39388;50.936;6.848;2023-01-29T13:06:30;102029.00;;;4.04;69.25
53506;BME280;39388;50.936;6.848;2023-01-29T13:09:06;102018.84;;;4.06;69.54
53506;BME280;39388;50.936;6.848;2023-01-29T13:11:47;102022.38;;;4.09;69.74
53506;BME280;39388;50.936;6.848;2023-01-29T13:14:30;102024.00;;;4.07;69.74
53506;BME280;39388;50.936;6.848;2023-01-29T13:17:13;102011.13;;;4.04;69.90
53506;BME280;39388;50.936;6.848;2023-01-29T13:19:49;102008.00;;;4.11;69.61
53506;BME280;39388;50.936;6.848;2023-01-29T13:22:26;102012.69;;;4.22;69.49
53506;BME280;39388;50.936;6.848;2023-01-29T13:24:57;101999.31;;;4.27;69.42
53506;BME280;39388;50.936;6.848;2023-01-29T13:27:30;101991.06;;;4.33;69.85
53506;BME280;39388;50.936;6.848;2023-01-29T13:30:01;101990.63;;;4.43;69.28
53506;BME280;39388;50.936;6.848;2023-01-29T13:32:34;101976.94;;;4.43;69.44
53506;BME280;39388;50.936;6.848;2023-01-29T13:35:05;101974.28;;;4.61;69.90
53506;BME280;39388;50.936;6.848;2023-01-29T13:37:52;101974.88;;;4.76;69.32
53506;BME280;39388;50.936;6.848;2023-01-29T13:40:27;101966.78;;;4.87;68.76
53506;BME280;39388;50.936;6.848;2023-01-29T13:42:59;101960.13;;;4.92;68.62
53506;BME280;39388;50.936;6.848;2023-01-29T13:45:41;101959.63;;;5.01;68.76
53506;BME280;39388;50.936;6.848;2023-01-29T13:48:23;101951.22;;;5.03;68.70
53506;BME280;39388;50.936;6.848;2023-01-29T13:50:55;101960.84;;;5.11;68.85
53506;BME280;39388;50.936;6.848;2023-01-29T13:53:35;101961.81;;;5.14;67.73
53506;BME280;39388;50.936;6.848;2023-01-29T13:59:04;101956.34;;;5.03;68.09
53506;BME280;39388;50.936;6.848;2023-01-29T14:06:55;101958.50;;;4.94;68.03
53506;BME280;39388;50.936;6.848;2023-01-29T14:09:33;101967.16;;;4.98;68.43
53506;BME280;39388;50.936;6.848;2023-01-29T14:17:25;101951.16;;;4.79;68.09
53506;BME280;39388;50.936;6.848;2023-01-29T14:20:02;101968.44;;;4.86;68.19
53506;BME280;39388;50.936;6.848;2023-01-29T14:22:53;101969.16;;;4.82;68.75
53506;BME280;39388;50.936;6.848;2023-01-29T14:25:37;101968.22;;;4.80;68.22
53506;BME280;39388;50.936;6.848;2023-01-29T14:28:15;101973.25;;;4.79;68.58
53506;BME280;39388;50.936;6.848;2023-01-29T14:30:49;101967.03;;;4.72;67.97
53506;BME280;39388;50.936;6.848;2023-01-29T14:33:36;101962.72;;;4.71;68.22
53506;BME280;39388;50.936;6.848;2023-01-29T14:36:14;101964.44;;;4.70;68.26
53506;BME280;39388;50.936;6.848;2023-01-29T14:38:49;101966.09;;;4.70;67.95
53506;BME280;39388;50.936;6.848;2023-01-29T14:41:28;101961.06;;;4.71;68.52
53506;BME280;39388;50.936;6.848;2023-01-29T14:44:54;101962.56;;;4.66;68.18
53506;BME280;39388;50.936;6.848;2023-01-29T14:47:20;101961.56;;;4.63;68.45
53506;BME280;39388;50.936;6.848;2023-01-29T14:55:51;101960.41;;;4.54;68.23
53506;BME280;39388;50.936;6.848;2023-01-29T14:59:15;101966.31;;;4.53;67.82
53506;BME280;39388;50.936;6.848;2023-01-29T15:01:24;101963.56;;;4.49;68.26
53506;BME280;39388;50.936;6.848;2023-01-29T15:04:19;101971.44;;;4.53;68.13
53506;BME280;39388;50.936;6.848;2023-01-29T15:07:01;101964.44;;;4.49;68.01
53506;BME280;39388;50.936;6.848;2023-01-29T15:09:37;101971.34;;;4.52;67.88
53506;BME280;39388;50.936;6.848;2023-01-29T15:15:09;101956.47;;;4.41;68.25
53506;BME280;39388;50.936;6.848;2023-01-29T15:20:35;101962.53;;;4.43;68.10
53506;BME280;39388;50.936;6.848;2023-01-29T15:23:28;101964.19;;;4.43;68.13
53506;BME280;39388;50.936;6.848;2023-01-29T15:26:05;101968.44;;;4.42;68.20
53506;BME280;39388;50.936;6.848;2023-01-29T15:28:37;101960.78;;;4.42;68.74
53506;BME280;39388;50.936;6.848;2023-01-29T15:31:12;101956.97;;;4.33;68.34
53506;BME280;39388;50.936;6.848;2023-01-29T15:33:47;101962.22;;;4.36;67.92
53506;BME280;39388;50.936;6.848;2023-01-29T15:36:25;101950.88;;;4.29;68.54
53506;BME280;39388;50.936;6.848;2023-01-29T15:41:42;101959.56;;;4.34;68.05
53506;BME280;39388;50.936;6.848;2023-01-29T15:44:19;101952.81;;;4.35;68.43
53506;BME280;39388;50.936;6.848;2023-01-29T15:47:00;101949.25;;;4.31;68.33
53506;BME280;39388;50.936;6.848;2023-01-29T15:49:34;101954.41;;;4.33;68.04
53506;BME280;39388;50.936;6.848;2023-01-29T15:52:12;101943.13;;;4.27;68.27